Time;durP1;ratioP1;P1;durP2;ratioP2;P2;SDS_P1;SDS_P2;PMS_P1;PMS_P2;Temp;Humidity;BMP_temperature;BMP_pressure;BME280_temperature;BME280_humidity;BME280_pressure;Samples;Min_cycle;Max_cycle;Signal;HPM_P1;HPM_P2
2021/08/22 00:00:30;;;;;;;16.43;10.40;;;20.80;88.40;;;;;;5048852;28;20250;-75
2021/08/22 00:02:56;;;;;;;14.50;9.80;;;20.80;88.40;;;;;;5044764;28;20238;-75
2021/08/22 00:05:22;;;;;;;13.90;9.33;;;20.80;88.30;;;;;;5044000;28;20185;-74
2021/08/22 00:07:48;;;;;;;15.87;10.03;;;20.70;88.40;;;;;;5037148;28;20194;-74
2021/08/22 00:10:13;;;;;;;15.40;9.60;;;20.70;88.70;;;;;;5043176;28;20423;-76
2021/08/22 00:12:40;;;;;;;13.07;9.33;;;20.70;88.90;;;;;;5040039;28;20229;-75
2021/08/22 00:15:07;;;;;;;16.87;10.10;;;20.70;88.70;;;;;;5042530;28;20645;-73
2021/08/22 00:17:33;;;;;;;10.97;7.97;;;20.80;88.10;;;;;;5036345;28;20438;-75
2021/08/22 00:19:58;;;;;;;14.47;9.93;;;20.90;87.70;;;;;;5040961;28;20472;-74
2021/08/22 00:22:24;;;;;;;14.23;9.93;;;21.10;88.40;;;;;;5042848;28;20202;-74
2021/08/22 00:24:50;;;;;;;15.13;8.97;;;21.30;89.60;;;;;;5036644;28;20315;-75
2021/08/22 00:27:16;;;;;;;13.80;9.07;;;21.10;90.10;;;;;;5038458;28;20421;-75
2021/08/22 00:29:41;;;;;;;12.47;8.20;;;21.00;90.40;;;;;;5045971;28;20648;-74
2021/08/22 00:32:08;;;;;;;6.20;4.90;;;20.80;91.00;;;;;;5037912;28;20235;-72
2021/08/22 00:34:34;;;;;;;7.23;5.40;;;20.20;88.90;;;;;;5044392;28;20506;-75
2021/08/22 00:37:00;;;;;;;9.90;5.10;;;19.60;91.30;;;;;;5036410;28;20539;-74
2021/08/22 00:39:29;;;;;;;7.93;4.40;;;19.30;91.80;;;;;;5042522;28;20187;-75
2021/08/22 00:41:55;;;;;;;11.30;5.27;;;19.00;93.60;;;;;;5041960;28;20945;-75
2021/08/22 00:44:24;;;;;;;9.80;5.70;;;18.70;95.60;;;;;;5039835;28;20432;-74
2021/08/22 00:46:52;;;;;;;13.90;5.27;;;18.40;96.60;;;;;;5039761;28;20988;-74
2021/08/22 00:49:20;;;;;;;8.73;4.90;;;18.10;97.90;;;;;;5046350;28;20426;-74
2021/08/22 00:51:46;;;;;;;8.50;4.43;;;17.90;98.60;;;;;;5043631;28;20448;-73
2021/08/22 00:54:12;;;;;;;10.00;4.40;;;17.80;99.10;;;;;;5038467;28;20427;-75
2021/08/22 00:56:39;;;;;;;7.03;3.93;;;17.60;98.90;;;;;;5042570;28;20603;-74
2021/08/22 00:59:07;;;;;;;8.03;4.17;;;17.50;99.20;;;;;;5046616;28;20189;-75
2021/08/22 01:01:33;;;;;;;9.10;3.73;;;17.40;99.30;;;;;;5042531;28;20491;-74
2021/08/22 01:04:34;;;;;;;5.90;3.70;;;17.40;99.10;;;;;;5038852;28;20432;-76
2021/08/22 01:07:11;;;;;;;7.80;3.83;;;17.40;99.00;;;;;;5042988;28;20935;-75
2021/08/22 01:09:44;;;;;;;5.53;3.60;;;17.40;98.90;;;;;;5036403;28;20499;-74
2021/08/22 01:12:16;;;;;;;7.63;3.90;;;17.40;99.20;;;;;;5037652;28;20454;-76
2021/08/22 01:14:48;;;;;;;8.47;4.60;;;17.50;99.70;;;;;;5040458;28;20416;-76
2021/08/22 01:17:16;;;;;;;10.30;5.00;;;17.50;99.90;;;;;;5035671;28;20785;-76
2021/08/22 01:19:45;;;;;;;8.10;4.83;;;17.60;99.90;;;;;;5040759;28;20520;-75
2021/08/22 01:22:11;;;;;;;8.93;4.97;;;17.60;99.90;;;;;;5042890;28;20526;-75
2021/08/22 01:24:39;;;;;;;7.20;4.60;;;17.70;99.90;;;;;;5049372;28;20427;-75
2021/08/22 01:27:07;;;;;;;10.93;4.67;;;17.70;99.90;;;;;;5043879;28;20496;-75
2021/08/22 01:29:42;;;;;;;9.90;4.30;;;17.80;99.90;;;;;;5040473;28;20511;-75
2021/08/22 01:32:12;;;;;;;7.57;4.20;;;17.70;99.90;;;;;;5046712;28;20423;-74
2021/08/22 01:34:39;;;;;;;13.43;5.20;;;17.80;99.90;;;;;;5046470;28;20416;-75
2021/08/22 01:37:05;;;;;;;9.93;4.40;;;17.70;99.90;;;;;;5047005;28;20441;-75
2021/08/22 01:39:33;;;;;;;5.93;4.27;;;17.70;99.90;;;;;;5051070;28;20431;-76
2021/08/22 01:41:59;;;;;;;9.90;5.20;;;17.60;99.90;;;;;;5050410;28;20490;-75
2021/08/22 01:44:25;;;;;;;9.43;4.80;;;17.60;99.90;;;;;;5052742;28;20437;-75
2021/08/22 01:46:52;;;;;;;7.70;4.70;;;17.60;99.90;;;;;;5049359;28;20891;-76
2021/08/22 01:49:18;;;;;;;8.60;5.63;;;17.60;99.90;;;;;;5054664;28;20423;-76
2021/08/22 01:51:45;;;;;;;14.23;6.10;;;17.60;99.90;;;;;;5047922;28;20471;-76
2021/08/22 01:54:11;;;;;;;10.77;5.83;;;17.60;99.90;;;;;;5044411;28;20503;-75
2021/08/22 01:56:39;;;;;;;7.77;4.77;;;17.60;99.90;;;;;;5038401;28;20531;-76
2021/08/22 01:59:05;;;;;;;10.10;5.10;;;17.60;99.90;;;;;;5044151;28;20432;-76
2021/08/22 02:01:33;;;;;;;9.27;4.60;;;17.60;99.90;;;;;;5053383;28;20471;-75
2021/08/22 02:04:17;;;;;;;9.30;4.60;;;17.60;99.90;;;;;;5054140;28;20434;-76
2021/08/22 02:06:47;;;;;;;8.37;4.77;;;17.70;99.90;;;;;;5047115;28;20512;-76
2021/08/22 02:09:16;;;;;;;8.37;4.33;;;17.70;99.90;;;;;;5044684;28;20799;-76
2021/08/22 02:11:50;;;;;;;6.80;4.33;;;17.80;99.90;;;;;;5052103;28;20436;-76
2021/08/22 02:14:20;;;;;;;9.93;3.73;;;17.90;99.90;;;;;;5043539;28;20507;-77
2021/08/22 02:16:48;;;;;;;7.10;4.60;;;17.90;99.80;;;;;;5049156;28;20481;-75
2021/08/22 02:19:15;;;;;;;9.30;4.33;;;17.90;99.70;;;;;;5033225;28;20432;-77
2021/08/22 02:21:41;;;;;;;7.90;4.20;;;17.90;99.60;;;;;;5047107;28;20436;-76
2021/08/22 02:24:07;;;;;;;7.90;4.10;;;17.90;99.10;;;;;;5048369;28;20418;-76
2021/08/22 02:26:34;;;;;;;9.17;4.33;;;18.00;99.10;;;;;;5046164;28;20949;-76
2021/08/22 02:29:00;;;;;;;7.43;4.20;;;17.90;99.10;;;;;;5047126;28;20473;-76
2021/08/22 02:31:28;;;;;;;7.33;4.33;;;17.90;99.20;;;;;;5045106;28;20437;-77
2021/08/22 02:33:54;;;;;;;10.40;4.47;;;17.90;99.00;;;;;;5046866;28;20235;-76
2021/08/22 02:36:20;;;;;;;7.93;3.80;;;17.80;98.80;;;;;;5045979;28;20451;-75
2021/08/22 02:38:46;;;;;;;5.67;3.60;;;17.70;98.60;;;;;;5052802;28;20618;-76
2021/08/22 02:41:12;;;;;;;9.20;3.70;;;17.70;98.70;;;;;;5044756;28;20471;-76
2021/08/22 02:43:38;;;;;;;8.97;4.07;;;17.70;99.00;;;;;;5052288;28;20655;-76
2021/08/22 02:46:04;;;;;;;7.90;4.17;;;17.70;99.40;;;;;;5050860;28;20426;-76
2021/08/22 02:48:30;;;;;;;5.90;3.40;;;17.70;99.50;;;;;;5051816;28;20493;-76
2021/08/22 02:50:55;;;;;;;6.53;3.63;;;17.70;99.40;;;;;;5045893;28;20646;-76
2021/08/22 02:53:21;;;;;;;7.47;4.33;;;17.70;99.20;;;;;;5042589;28;20247;-76
2021/08/22 02:55:47;;;;;;;7.07;4.40;;;17.60;99.20;;;;;;5048304;28;20193;-76
2021/08/22 02:58:13;;;;;;;7.60;4.00;;;17.60;98.70;;;;;;5048305;28;20189;-76
2021/08/22 03:00:39;;;;;;;8.53;4.27;;;17.70;98.80;;;;;;5072825;28;20544;-76
2021/08/22 03:03:05;;;;;;;8.63;4.27;;;17.70;99.00;;;;;;5065941;28;20427;-76
2021/08/22 03:05:31;;;;;;;6.57;3.60;;;17.80;98.80;;;;;;5049478;28;20926;-76
2021/08/22 03:07:57;;;;;;;8.13;3.70;;;17.90;98.70;;;;;;5046727;28;20497;-76
2021/08/22 03:10:22;;;;;;;8.13;4.17;;;17.90;99.10;;;;;;5047300;28;20598;-77
2021/08/22 03:12:48;;;;;;;8.80;4.50;;;18.00;99.20;;;;;;5044073;28;20219;-76
2021/08/22 03:15:14;;;;;;;7.87;4.33;;;17.90;99.10;;;;;;5042794;28;20198;-76
2021/08/22 03:17:40;;;;;;;7.57;4.00;;;17.90;99.00;;;;;;5041252;28;20430;-76
2021/08/22 03:20:07;;;;;;;9.30;4.20;;;18.00;99.10;;;;;;5048932;28;20287;-76
2021/08/22 03:22:33;;;;;;;10.67;5.37;;;18.00;99.20;;;;;;5046524;28;20747;-76
2021/08/22 03:24:59;;;;;;;9.47;4.70;;;18.10;99.40;;;;;;5041625;28;20464;-75
2021/08/22 03:27:25;;;;;;;8.03;4.70;;;18.10;99.40;;;;;;5044587;28;20512;-76
2021/08/22 03:29:51;;;;;;;10.90;4.50;;;18.10;99.40;;;;;;5042332;28;20528;-76
2021/08/22 03:32:17;;;;;;;7.40;4.10;;;18.10;99.60;;;;;;5043753;28;20217;-76
2021/08/22 03:34:43;;;;;;;5.43;4.07;;;18.10;99.40;;;;;;5046258;28;20255;-76
2021/08/22 03:37:09;;;;;;;8.90;5.20;;;18.10;99.10;;;;;;5041503;28;20194;-76
2021/08/22 03:39:35;;;;;;;9.67;4.70;;;18.10;99.20;;;;;;5044409;28;20800;-77
2021/08/22 03:42:01;;;;;;;12.33;4.50;;;18.10;99.30;;;;;;5047181;28;20447;-76
2021/08/22 03:44:26;;;;;;;7.53;4.13;;;18.10;99.30;;;;;;5047359;28;20201;-76
2021/08/22 03:46:52;;;;;;;7.67;4.80;;;18.20;99.30;;;;;;5044188;28;20424;-74
2021/08/22 03:49:18;;;;;;;7.17;4.13;;;18.20;99.40;;;;;;5049613;28;20178;-76
2021/08/22 03:51:44;;;;;;;7.60;4.70;;;18.20;99.50;;;;;;5049845;28;20465;-77
2021/08/22 03:54:10;;;;;;;6.27;4.67;;;18.20;99.50;;;;;;5044945;28;20635;-77
2021/08/22 03:56:35;;;;;;;11.10;4.03;;;18.20;99.40;;;;;;5048030;28;20189;-76
2021/08/22 03:59:06;;;;;;;9.00;4.27;;;18.10;99.40;;;;;;5046607;28;20273;-76
2021/08/22 04:01:33;;;;;;;10.40;4.60;;;18.10;99.60;;;;;;5043221;28;20247;-75
2021/08/22 04:03:59;;;;;;;9.67;4.87;;;18.10;99.60;;;;;;5040761;28;20952;-75
2021/08/22 04:06:25;;;;;;;6.43;4.00;;;18.10;99.60;;;;;;5039110;28;20416;-75
2021/08/22 04:08:51;;;;;;;6.50;4.20;;;18.10;99.50;;;;;;5044305;28;20212;-75
2021/08/22 04:11:17;;;;;;;9.67;5.27;;;18.10;99.60;;;;;;5050234;28;20447;-76
2021/08/22 04:13:42;;;;;;;8.40;4.50;;;18.10;99.70;;;;;;5041174;28;20246;-76
2021/08/22 04:16:08;;;;;;;8.57;4.40;;;18.10;99.90;;;;;;5044300;28;20679;-76
2021/08/22 04:18:34;;;;;;;8.27;4.77;;;18.10;99.90;;;;;;5043004;28;20183;-75
2021/08/22 04:21:00;;;;;;;7.90;5.10;;;18.10;99.80;;;;;;5037568;28;20232;-76
2021/08/22 04:23:26;;;;;;;8.10;4.80;;;18.20;99.60;;;;;;5039057;28;20259;-76
2021/08/22 04:25:53;;;;;;;7.10;4.90;;;18.20;99.60;;;;;;5044456;28;20415;-75
2021/08/22 04:28:22;;;;;;;11.93;4.83;;;18.20;99.60;;;;;;5036758;28;20424;-75
2021/08/22 04:30:47;;;;;;;8.37;5.50;;;18.20;99.60;;;;;;5046231;28;20805;-76
2021/08/22 04:33:13;;;;;;;10.50;5.57;;;18.20;99.30;;;;;;5032869;28;20420;-76
2021/08/22 04:35:39;;;;;;;9.00;4.90;;;18.20;99.40;;;;;;5039068;28;20203;-75
2021/08/22 04:38:05;;;;;;;7.90;4.40;;;18.30;99.40;;;;;;5043639;28;20647;-76
2021/08/22 04:40:30;;;;;;;12.47;6.43;;;18.30;99.40;;;;;;5044288;28;20524;-77
2021/08/22 04:42:57;;;;;;;7.90;5.10;;;18.20;99.30;;;;;;5040810;28;20223;-76
2021/08/22 04:45:23;;;;;;;10.10;4.67;;;18.20;99.50;;;;;;5047972;28;20177;-76
2021/08/22 04:47:49;;;;;;;7.13;4.70;;;18.20;99.60;;;;;;5046166;28;20419;-76
2021/08/22 04:50:14;;;;;;;7.50;4.97;;;18.30;99.70;;;;;;5046479;28;20428;-76
2021/08/22 04:52:40;;;;;;;8.80;5.23;;;18.30;99.80;;;;;;5049793;28;20214;-77
2021/08/22 04:55:06;;;;;;;9.27;5.20;;;18.30;99.70;;;;;;5043827;28;20405;-78
2021/08/22 04:57:33;;;;;;;7.90;5.03;;;18.30;99.40;;;;;;5048989;28;20267;-77
2021/08/22 04:59:59;;;;;;;7.87;5.10;;;18.30;99.40;;;;;;5049593;28;20548;-76
2021/08/22 05:02:24;;;;;;;7.50;4.83;;;18.40;99.40;;;;;;5048453;28;20531;-78
2021/08/22 05:04:50;;;;;;;8.70;5.17;;;18.40;99.10;;;;;;5044442;28;20189;-75
2021/08/22 05:07:16;;;;;;;8.03;5.27;;;18.40;99.10;;;;;;5042139;28;20201;-76
2021/08/22 05:09:41;;;;;;;8.17;5.27;;;18.50;99.00;;;;;;5045584;28;20189;-75
2021/08/22 05:12:07;;;;;;;8.33;5.07;;;18.50;99.00;;;;;;5047382;28;20276;-76
2021/08/22 05:14:34;;;;;;;6.90;4.03;;;18.70;98.90;;;;;;5042964;28;20217;-76
2021/08/22 05:17:01;;;;;;;8.10;4.90;;;18.70;98.90;;;;;;5045301;28;20480;-76
2021/08/22 05:19:27;;;;;;;11.87;6.10;;;18.80;98.90;;;;;;5047476;28;20425;-77
2021/08/22 05:21:52;;;;;;;7.70;5.40;;;18.80;98.30;;;;;;5046420;28;20912;-75
2021/08/22 05:24:18;;;;;;;11.83;5.00;;;18.70;98.20;;;;;;5048351;28;20190;-76
2021/08/22 05:26:44;;;;;;;8.17;4.80;;;18.80;98.30;;;;;;5041104;28;20634;-76
2021/08/22 05:29:10;;;;;;;7.30;4.50;;;18.80;98.20;;;;;;5045421;28;20267;-76
2021/08/22 05:31:36;;;;;;;8.40;5.13;;;18.90;98.30;;;;;;5045739;28;20205;-76
2021/08/22 05:34:02;;;;;;;9.37;5.33;;;18.90;98.20;;;;;;5042836;28;20228;-77
2021/08/22 05:36:27;;;;;;;9.30;4.93;;;18.90;98.20;;;;;;5050022;28;21003;-79
2021/08/22 05:38:55;;;;;;;7.80;5.33;;;18.90;98.10;;;;;;5048421;28;20655;-79
2021/08/22 05:41:21;;;;;;;7.00;4.67;;;18.90;97.60;;;;;;5049486;28;20208;-76
2021/08/22 05:43:47;;;;;;;8.37;5.00;;;18.90;97.50;;;;;;5048568;28;20798;-78
2021/08/22 05:46:13;;;;;;;8.97;4.90;;;18.90;97.30;;;;;;5049040;28;20218;-77
2021/08/22 05:48:38;;;;;;;7.60;5.10;;;18.80;97.20;;;;;;5049132;28;20181;-76
2021/08/22 05:51:04;;;;;;;9.77;4.97;;;18.90;97.10;;;;;;5046476;28;20203;-76
2021/08/22 05:53:30;;;;;;;11.87;5.07;;;19.00;96.70;;;;;;5046641;28;20577;-76
2021/08/22 05:55:57;;;;;;;9.30;5.57;;;19.00;96.50;;;;;;5048407;28;20485;-76
2021/08/22 05:58:23;;;;;;;7.90;4.50;;;19.00;96.70;;;;;;5041402;28;20433;-77
2021/08/22 06:00:49;;;;;;;6.27;4.33;;;18.90;96.90;;;;;;5048389;28;20548;-76
2021/08/22 06:03:15;;;;;;;9.60;5.50;;;18.90;96.90;;;;;;5048417;28;20441;-77
2021/08/22 06:05:41;;;;;;;8.10;4.50;;;19.10;96.90;;;;;;5043589;28;20422;-77
2021/08/22 06:08:07;;;;;;;8.63;4.90;;;19.20;96.80;;;;;;5046923;28;20600;-75
2021/08/22 06:10:32;;;;;;;6.80;4.97;;;19.30;96.80;;;;;;5043660;28;20185;-75
2021/08/22 06:12:58;;;;;;;11.93;5.60;;;19.50;96.60;;;;;;5052520;28;20443;-75
2021/08/22 06:15:24;;;;;;;9.87;5.30;;;19.50;96.00;;;;;;5060097;28;20231;-75
2021/08/22 06:17:50;;;;;;;7.83;4.43;;;19.50;95.60;;;;;;5048964;28;20597;-76
2021/08/22 06:20:15;;;;;;;10.50;4.70;;;19.50;95.60;;;;;;5037829;28;20217;-76
2021/08/22 06:22:41;;;;;;;8.00;4.93;;;19.50;95.30;;;;;;5048480;28;20287;-75
2021/08/22 06:25:07;;;;;;;7.83;4.77;;;19.50;95.00;;;;;;5045906;28;20785;-75
2021/08/22 06:27:33;;;;;;;8.83;4.80;;;19.50;95.20;;;;;;5052268;28;20228;-75
2021/08/22 06:30:00;;;;;;;7.73;5.30;;;19.60;95.40;;;;;;5052091;28;20426;-76
2021/08/22 06:32:26;;;;;;;9.60;4.70;;;19.70;95.30;;;;;;5051507;28;20211;-77
2021/08/22 06:34:52;;;;;;;8.33;5.63;;;19.80;94.70;;;;;;5050241;28;20438;-76
2021/08/22 06:37:18;;;;;;;6.87;5.23;;;19.80;94.40;;;;;;5054338;28;20430;-75
2021/08/22 06:39:47;;;;;;;9.17;5.70;;;19.90;94.50;;;;;;5045029;28;20273;-76
2021/08/22 06:42:13;;;;;;;9.47;5.43;;;19.90;94.50;;;;;;5045719;28;20258;-76
2021/08/22 06:44:41;;;;;;;8.60;5.43;;;19.90;94.40;;;;;;5050842;28;20449;-75
2021/08/22 06:47:09;;;;;;;8.60;5.67;;;19.80;94.50;;;;;;5047742;28;20431;-75
2021/08/22 06:49:36;;;;;;;10.40;5.10;;;19.90;94.80;;;;;;5043566;28;20459;-74
2021/08/22 06:52:01;;;;;;;8.20;5.03;;;19.90;95.00;;;;;;5045638;28;20961;-75
2021/08/22 06:54:27;;;;;;;8.13;5.43;;;20.00;94.90;;;;;;5045601;28;20438;-74
2021/08/22 06:56:55;;;;;;;20.73;9.07;;;20.00;94.30;;;;;;5050441;28;20253;-74
2021/08/22 06:59:22;;;;;;;9.80;5.77;;;20.00;94.20;;;;;;5039510;28;20247;-75
2021/08/22 07:01:47;;;;;;;9.90;6.03;;;20.00;94.00;;;;;;5050629;28;20478;-74
2021/08/22 07:04:13;;;;;;;12.20;7.70;;;20.20;93.70;;;;;;5043363;28;20744;-74
2021/08/22 07:06:39;;;;;;;7.50;5.23;;;20.30;93.20;;;;;;5049556;28;20231;-75
2021/08/22 07:09:05;;;;;;;7.40;5.37;;;20.40;93.00;;;;;;5049197;28;20274;-74
2021/08/22 07:11:31;;;;;;;8.70;6.00;;;20.50;91.90;;;;;;5043225;28;20201;-74
2021/08/22 07:13:56;;;;;;;9.93;5.87;;;20.50;92.10;;;;;;5045212;28;20423;-74
2021/08/22 07:16:22;;;;;;;7.97;5.20;;;20.50;92.30;;;;;;5049572;28;20189;-74
2021/08/22 07:18:48;;;;;;;9.50;6.47;;;20.60;92.40;;;;;;5045593;28;20187;-76
2021/08/22 07:21:13;;;;;;;10.50;5.97;;;20.70;92.50;;;;;;5046288;28;20214;-75
2021/08/22 07:23:39;;;;;;;26.53;11.93;;;20.80;92.30;;;;;;5047699;28;20202;-74
2021/08/22 07:26:05;;;;;;;8.57;5.40;;;20.90;91.00;;;;;;5044262;28;20194;-74
2021/08/22 07:28:30;;;;;;;8.47;5.17;;;21.00;89.20;;;;;;5048179;28;20212;-74
2021/08/22 07:30:56;;;;;;;8.90;5.80;;;20.90;89.20;;;;;;5050516;28;20213;-75
2021/08/22 07:33:22;;;;;;;6.50;4.23;;;20.90;89.30;;;;;;5042022;28;20181;-75
2021/08/22 07:35:47;;;;;;;7.80;5.90;;;20.80;89.50;;;;;;5042834;28;20242;-75
2021/08/22 07:38:13;;;;;;;9.13;5.40;;;20.70;90.10;;;;;;5049109;28;20195;-75
2021/08/22 07:40:39;;;;;;;8.27;5.57;;;20.70;90.00;;;;;;5042077;28;20204;-75
2021/08/22 07:43:05;;;;;;;7.50;4.83;;;20.80;90.10;;;;;;5048442;28;20181;-73
2021/08/22 07:45:31;;;;;;;7.03;5.20;;;20.90;90.00;;;;;;5046374;28;20632;-74
2021/08/22 07:47:57;;;;;;;8.60;5.50;;;21.00;89.90;;;;;;5040613;28;20427;-73
2021/08/22 07:50:22;;;;;;;8.00;5.20;;;21.10;88.60;;;;;;5048526;28;20186;-74
2021/08/22 07:52:48;;;;;;;13.80;8.40;;;21.20;87.60;;;;;;5048556;28;20221;-75
2021/08/22 07:55:14;;;;;;;10.83;6.20;;;21.30;87.00;;;;;;5046661;28;20553;-74
2021/08/22 07:57:39;;;;;;;9.83;7.10;;;21.20;87.10;;;;;;5050467;28;20185;-74
2021/08/22 08:00:06;;;;;;;10.67;4.97;;;21.30;87.00;;;;;;5048278;28;20205;-74
2021/08/22 08:02:31;;;;;;;7.63;4.97;;;21.30;86.90;;;;;;5042742;28;20205;-75
2021/08/22 08:04:57;;;;;;;10.40;6.00;;;21.30;87.00;;;;;;5045966;28;20417;-75
2021/08/22 08:07:23;;;;;;;8.33;5.37;;;21.20;87.00;;;;;;5039259;28;20193;-75
2021/08/22 08:09:48;;;;;;;9.80;5.40;;;21.20;86.80;;;;;;5042884;28;20221;-75
2021/08/22 08:12:14;;;;;;;8.87;5.47;;;21.20;87.00;;;;;;5041520;28;20211;-73
2021/08/22 08:14:40;;;;;;;8.17;5.30;;;21.20;87.10;;;;;;5047292;28;20181;-75
2021/08/22 08:17:06;;;;;;;8.80;5.43;;;21.20;87.40;;;;;;5046990;28;20261;-74
2021/08/22 08:19:32;;;;;;;9.70;5.97;;;21.30;87.40;;;;;;5038892;28;20617;-75
2021/08/22 08:21:58;;;;;;;9.63;5.50;;;21.30;87.60;;;;;;5043522;28;20578;-75
2021/08/22 08:24:24;;;;;;;10.10;5.53;;;21.50;87.00;;;;;;5042256;28;20189;-74
2021/08/22 08:26:50;;;;;;;7.33;4.60;;;21.50;87.10;;;;;;5040227;28;20654;-75
2021/08/22 08:29:15;;;;;;;9.00;5.63;;;21.60;86.90;;;;;;5043336;28;20561;-74
2021/08/22 08:31:41;;;;;;;6.90;4.67;;;21.80;86.20;;;;;;5046017;28;20282;-75
2021/08/22 08:34:07;;;;;;;8.40;4.87;;;21.90;84.00;;;;;;5043405;28;20637;-75
2021/08/22 08:36:32;;;;;;;7.70;5.40;;;22.00;84.70;;;;;;5045267;28;20500;-75
2021/08/22 08:38:58;;;;;;;7.83;4.37;;;22.10;83.60;;;;;;5044974;28;20968;-74
2021/08/22 08:41:24;;;;;;;12.73;5.73;;;22.10;84.00;;;;;;5041948;28;20759;-74
2021/08/22 08:43:49;;;;;;;9.10;5.10;;;22.20;83.70;;;;;;5044439;28;20250;-75
2021/08/22 08:46:21;;;;;;;7.90;4.93;;;22.30;83.60;;;;;;5040456;28;20524;-74
2021/08/22 08:49:14;;;;;;;9.73;5.40;;;22.20;83.40;;;;;;5043245;28;20219;-74
2021/08/22 08:52:06;;;;;;;9.37;5.47;;;22.20;83.80;;;;;;5042406;28;20544;-75
2021/08/22 08:54:40;;;;;;;6.43;4.90;;;22.30;83.10;;;;;;5043587;28;20458;-73
2021/08/22 08:57:06;;;;;;;7.83;5.63;;;22.30;83.80;;;;;;5040535;28;20428;-74
2021/08/22 08:59:39;;;;;;;6.47;4.70;;;22.50;83.10;;;;;;5045101;28;20487;-74
2021/08/22 09:02:05;;;;;;;8.30;5.20;;;22.60;82.70;;;;;;5044923;28;20222;-75
2021/08/22 09:05:08;;;;;;;7.97;5.70;;;22.70;81.80;;;;;;5043844;28;20936;-74
2021/08/22 09:07:44;;;;;;;10.13;5.30;;;22.60;81.70;;;;;;5040660;28;20780;-75
2021/08/22 09:10:41;;;;;;;8.10;4.80;;;22.30;82.20;;;;;;5041351;28;20793;-74
2021/08/22 09:13:43;;;;;;;7.70;5.37;;;22.10;82.80;;;;;;5042644;28;20419;-74
2021/08/22 09:16:33;;;;;;;9.93;5.03;;;21.90;83.70;;;;;;5037928;28;20417;-73
2021/08/22 09:19:20;;;;;;;9.20;5.30;;;21.90;84.10;;;;;;5041888;28;20508;-74
2021/08/22 09:22:23;;;;;;;7.20;4.93;;;21.80;83.80;;;;;;5037751;28;20507;-75
2021/08/22 09:25:19;;;;;;;10.83;5.20;;;21.80;84.60;;;;;;5042206;28;20431;-74
2021/08/22 09:28:22;;;;;;;8.80;4.93;;;22.00;83.40;;;;;;5044341;28;20517;-76
2021/08/22 09:31:26;;;;;;;7.63;5.27;;;22.30;82.70;;;;;;5062812;28;20502;-75
2021/08/22 09:34:22;;;;;;;7.83;5.17;;;22.70;80.60;;;;;;5043073;28;20815;-74
2021/08/22 09:37:06;;;;;;;8.60;4.90;;;23.00;80.00;;;;;;5042782;28;20442;-73
2021/08/22 09:40:09;;;;;;;8.10;5.10;;;23.00;80.00;;;;;;5046964;28;20426;-74
2021/08/22 09:43:23;;;;;;;8.20;5.70;;;23.00;79.70;;;;;;5044657;28;20478;-75
2021/08/22 09:46:07;;;;;;;7.20;5.03;;;22.90;79.70;;;;;;5050901;28;20426;-73
2021/08/22 09:49:10;;;;;;;7.23;5.03;;;22.90;78.90;;;;;;5039397;28;20421;-75
2021/08/22 09:51:48;;;;;;;7.97;5.90;;;22.60;79.90;;;;;;5042261;28;20444;-75
2021/08/22 09:54:32;;;;;;;7.53;5.67;;;22.50;80.60;;;;;;5045276;28;20434;-74
2021/08/22 09:57:35;;;;;;;8.40;6.03;;;22.60;80.60;;;;;;5043878;28;20426;-74
2021/08/22 10:00:22;;;;;;;7.27;4.87;;;22.80;80.60;;;;;;5047794;28;20461;-76
2021/08/22 10:03:08;;;;;;;7.67;4.90;;;22.80;78.70;;;;;;5047646;28;20440;-74
2021/08/22 10:06:19;;;;;;;7.73;5.83;;;22.80;80.20;;;;;;5048053;28;20425;-75
2021/08/22 10:08:48;;;;;;;8.13;5.37;;;22.80;80.20;;;;;;5044991;28;20426;-76
2021/08/22 10:11:21;;;;;;;9.90;5.83;;;23.00;80.00;;;;;;5045506;28;20593;-74
2021/08/22 10:13:47;;;;;;;7.90;5.67;;;23.20;79.60;;;;;;5029799;28;20500;-75
2021/08/22 10:16:18;;;;;;;9.50;5.93;;;23.10;80.80;;;;;;5049894;28;20434;-76
2021/08/22 10:18:44;;;;;;;7.13;4.73;;;22.80;81.40;;;;;;5029881;28;20189;-74
2021/08/22 10:21:11;;;;;;;7.53;4.73;;;22.50;82.40;;;;;;5027720;28;20477;-75
2021/08/22 10:23:41;;;;;;;9.60;5.50;;;22.20;83.70;;;;;;5046440;28;20561;-75
2021/08/22 10:26:30;;;;;;;10.20;6.07;;;22.20;84.00;;;;;;5042701;28;20969;-76
2021/08/22 10:29:00;;;;;;;10.70;5.87;;;22.20;84.40;;;;;;5047555;28;20434;-76
2021/08/22 10:31:51;;;;;;;8.23;5.80;;;22.10;84.60;;;;;;5041452;28;20465;-75
2021/08/22 10:34:20;;;;;;;11.50;6.37;;;21.90;85.30;;;;;;5048512;28;20449;-74
2021/08/22 10:36:47;;;;;;;9.43;5.50;;;21.80;86.20;;;;;;5028798;28;20479;-76
2021/08/22 10:39:22;;;;;;;14.13;7.10;;;21.70;87.10;;;;;;5049119;28;20939;-74
2021/08/22 10:42:17;;;;;;;11.07;6.33;;;21.90;87.40;;;;;;5046824;28;20477;-76
2021/08/22 10:44:43;;;;;;;13.90;7.30;;;21.90;87.80;;;;;;5046252;28;20786;-74
2021/08/22 10:47:12;;;;;;;10.13;6.27;;;21.90;87.40;;;;;;5046846;28;20426;-75
2021/08/22 10:49:50;;;;;;;11.10;6.60;;;21.90;87.70;;;;;;5046977;28;20429;-78
2021/08/22 10:52:33;;;;;;;9.73;5.43;;;21.80;88.30;;;;;;5048897;28;20502;-76
2021/08/22 10:55:13;;;;;;;10.40;6.30;;;21.80;89.00;;;;;;5050541;28;20433;-76
2021/08/22 10:57:45;;;;;;;10.80;7.07;;;21.80;89.50;;;;;;5040891;28;20432;-75
2021/08/22 11:00:27;;;;;;;12.57;7.17;;;21.80;89.90;;;;;;5045261;28;21069;-76
2021/08/22 11:03:00;;;;;;;10.47;7.10;;;21.70;90.00;;;;;;5042838;28;20864;-76
2021/08/22 11:05:31;;;;;;;11.40;6.70;;;21.60;91.10;;;;;;5044333;28;21213;-76
2021/08/22 11:08:20;;;;;;;15.50;6.60;;;21.50;91.50;;;;;;5048382;28;20431;-75
2021/08/22 11:11:03;;;;;;;11.40;7.60;;;21.40;91.60;;;;;;5043789;28;20449;-75
2021/08/22 11:13:50;;;;;;;10.40;6.80;;;21.30;91.70;;;;;;5055085;28;20412;-75
2021/08/22 11:16:16;;;;;;;11.27;6.87;;;21.10;92.50;;;;;;5070667;28;20445;-76
2021/08/22 11:18:45;;;;;;;11.20;6.77;;;21.10;92.90;;;;;;5057768;28;20557;-75
2021/08/22 11:21:11;;;;;;;10.83;6.33;;;20.90;92.20;;;;;;5045314;28;20288;-75
2021/08/22 11:23:37;;;;;;;6.40;3.80;;;20.80;90.60;;;;;;5042693;28;20573;-76
2021/08/22 11:26:07;;;;;;;6.27;4.00;;;20.50;85.70;;;;;;5045864;28;20190;-75
2021/08/22 11:28:33;;;;;;;6.60;3.80;;;20.40;86.60;;;;;;5042618;28;20196;-75
2021/08/22 11:30:59;;;;;;;4.47;3.00;;;20.30;86.50;;;;;;5047765;28;20875;-76
2021/08/22 11:33:29;;;;;;;9.50;5.63;;;20.30;86.00;;;;;;5045962;28;20427;-75
2021/08/22 11:35:55;;;;;;;5.10;3.07;;;20.00;86.80;;;;;;5049185;28;20625;-75
2021/08/22 11:38:21;;;;;;;5.50;3.13;;;19.90;88.00;;;;;;5046652;28;20792;-75
2021/08/22 11:40:48;;;;;;;3.90;2.40;;;19.90;88.30;;;;;;5047242;28;20477;-74
2021/08/22 11:43:14;;;;;;;3.77;2.43;;;19.80;89.20;;;;;;5040446;28;20430;-75
2021/08/22 11:45:42;;;;;;;3.40;2.33;;;19.90;89.00;;;;;;5047489;28;20427;-75
2021/08/22 11:48:15;;;;;;;5.40;2.80;;;19.90;88.10;;;;;;5037282;28;20442;-75
2021/08/22 11:50:42;;;;;;;4.23;2.50;;;20.10;88.30;;;;;;5043695;28;20541;-75
2021/08/22 11:53:09;;;;;;;4.57;2.40;;;20.10;87.70;;;;;;5036959;28;20436;-75
2021/08/22 11:55:40;;;;;;;3.23;2.10;;;20.20;88.00;;;;;;5045419;28;20419;-75
2021/08/22 11:58:09;;;;;;;3.47;2.20;;;20.40;88.10;;;;;;5049405;28;20933;-76
2021/08/22 12:00:36;;;;;;;5.53;2.67;;;20.30;87.10;;;;;;5046969;28;20469;-75
2021/08/22 12:03:03;;;;;;;7.20;2.77;;;20.20;87.30;;;;;;5043109;28;20447;-75
2021/08/22 12:05:30;;;;;;;4.50;3.20;;;20.20;87.70;;;;;;5042810;28;21340;-75
2021/08/22 12:08:10;;;;;;;5.17;3.37;;;20.20;88.60;;;;;;5042743;28;20443;-75
2021/08/22 12:10:40;;;;;;;4.23;2.37;;;20.30;88.70;;;;;;5048860;28;20438;-76
2021/08/22 12:13:20;;;;;;;5.50;3.00;;;20.30;88.60;;;;;;5045629;28;20771;-75
2021/08/22 12:15:48;;;;;;;6.07;2.50;;;20.20;89.20;;;;;;5041465;28;20442;-75
2021/08/22 12:18:27;;;;;;;3.63;2.47;;;20.10;88.90;;;;;;5048813;28;20415;-75
2021/08/22 12:21:15;;;;;;;4.20;2.77;;;20.00;90.10;;;;;;5049488;28;20570;-76
2021/08/22 12:23:43;;;;;;;3.47;2.37;;;19.80;90.40;;;;;;5047470;28;20841;-74
2021/08/22 12:26:29;;;;;;;5.00;3.53;;;19.50;91.40;;;;;;5049206;28;20517;-77
2021/08/22 12:29:06;;;;;;;5.23;2.60;;;19.40;92.50;;;;;;5042033;28;20561;-75
2021/08/22 12:31:34;;;;;;;6.17;2.80;;;19.20;93.00;;;;;;5048140;28;20478;-74
2021/08/22 12:34:08;;;;;;;4.13;2.50;;;19.30;93.50;;;;;;5047235;28;20438;-74
2021/08/22 12:36:45;;;;;;;4.30;2.90;;;19.30;92.80;;;;;;5045596;28;20437;-74
2021/08/22 12:39:14;;;;;;;4.40;2.70;;;19.30;93.30;;;;;;5042443;28;20435;-76
2021/08/22 12:41:51;;;;;;;4.07;2.50;;;19.30;93.70;;;;;;5041541;28;20871;-75
2021/08/22 12:44:22;;;;;;;4.30;1.90;;;19.20;93.40;;;;;;5039709;28;20437;-75
2021/08/22 12:46:54;;;;;;;3.33;2.20;;;19.20;92.70;;;;;;5040432;28;20477;-75
2021/08/22 12:49:21;;;;;;;4.67;2.20;;;19.00;93.20;;;;;;5045635;28;20430;-75
2021/08/22 12:51:48;;;;;;;3.53;2.30;;;18.80;93.00;;;;;;5042277;28;20460;-75
2021/08/22 12:54:13;;;;;;;5.10;2.50;;;18.90;93.20;;;;;;5036012;28;20430;-75
2021/08/22 12:56:39;;;;;;;5.40;2.43;;;19.00;93.60;;;;;;5041465;28;20568;-76
2021/08/22 12:59:05;;;;;;;2.87;1.93;;;19.40;93.70;;;;;;5039492;28;20223;-75